M/T Havva Ana — V7RE3 — position and weather

sailwx.info

Track history (hours):
 
Tides and Currents Weather Stations Pressure Air Temp Water Temp Dewpoint Dewpoint Depression Visibility Wind Speed Wind Dir Waves Ship Positions

M/T Havva Ana

Last reported at 2014-Aug-22 12:26 UTC. Time now 2014-Aug-23 03:35 UTC.
Position N 41°54' E 040°28'.

Length 124 m; draft 5.3 m.

Type: Tanker. MMSI: 538003488.

Date/timePositionNaut miles runAvg speedWind from/ knotsBaromVisibWave heightAir tempDewpointWater temp
2014-Aug-22 12:26N 41°54' E 040°28'  
2014-Aug-17 04:33N 40°57' E 028°58'4 0.5
2014-Aug-16 20:06N 40°57' E 028°53'0 0.0
2014-Aug-16 18:24N 40°57' E 028°53'2 2.7
2014-Aug-16 17:31N 40°56' E 028°56'1212.7
2014-Aug-16 16:33N 40°48' E 029°07'4 3.7
2014-Aug-16 15:33N 40°44' E 029°09'5 5.5
2014-Aug-16 14:33N 40°50' E 029°10'0 0.4
2014-Aug-16 13:33N 40°50' E 029°10'5 4.6
2014-Aug-16 12:29N 40°51' E 029°17'0 0.3
2014-Aug-16 11:28N 40°51' E 029°17'0 0.0
2014-Aug-16 10:28N 40°51' E 029°17'0 0.0
2014-Aug-16 09:22N 40°51' E 029°17'0 0.0
2014-Aug-16 08:28N 40°51' E 029°17'0 0.0
2014-Aug-16 07:22N 40°51' E 029°17'0 0.0
2014-Aug-16 06:28N 40°51' E 029°17'0 0.0
2014-Aug-16 05:28N 40°51' E 029°17'0 0.0
2014-Aug-16 04:28N 40°51' E 029°17'0 0.0
2014-Aug-16 03:28N 40°51' E 029°17'0 0.0
2014-Aug-16 02:28N 40°51' E 029°17'0 0.0
2014-Aug-16 01:28N 40°51' E 029°17'0 0.0
2014-Aug-16 00:28N 40°51' E 029°17'0 0.0
2014-Aug-15 23:16N 40°51' E 029°17'0 0.0
2014-Aug-15 22:10N 40°51' E 029°17'0 0.0
2014-Aug-15 21:28N 40°51' E 029°17'0 0.0
2014-Aug-15 20:28N 40°51' E 029°17'0 0.0
2014-Aug-15 19:28N 40°51' E 029°17'0 0.0
2014-Aug-15 18:28N 40°51' E 029°17'0 0.0
2014-Aug-15 17:22N 40°51' E 029°17'0 0.0
2014-Aug-15 16:28N 40°51' E 029°17'0 0.0
2014-Aug-15 15:28N 40°51' E 029°17'0 0.0
2014-Aug-15 14:28N 40°51' E 029°17'0 0.0
2014-Aug-15 13:28N 40°51' E 029°17'0 0.0
2014-Aug-15 12:16N 40°51' E 029°17'0 0.0
2014-Aug-15 00:10N 40°51' E 029°17'0 0.0
2014-Aug-14 23:28N 40°51' E 029°17'0 0.0
2014-Aug-14 22:04N 40°51' E 029°17'0 0.0
2014-Aug-14 21:28N 40°51' E 029°17'0 0.0
2014-Aug-14 20:28N 40°51' E 029°17'0 0.0
2014-Aug-14 19:28N 40°51' E 029°17'0 0.0
2014-Aug-14 18:22N 40°51' E 029°17'0 0.0
2014-Aug-14 17:27N 40°51' E 029°17'0 0.1
2014-Aug-14 16:33N 40°51' E 029°17'4 3.6
2014-Aug-14 15:33N 40°50' E 029°13'0 0.1
2014-Aug-14 14:33N 40°49' E 029°13'1 1.1
2014-Aug-14 13:33N 40°49' E 029°12'1211.6
2014-Aug-14 12:33N 40°45' E 028°57'12 0.3
2014-Aug-12 20:07N 40°57' E 028°53'4 7.2
2014-Aug-12 19:32N 40°55' E 028°58'1111.1
2014-Aug-12 18:33N 40°47' E 029°08'1110.9
2014-Aug-12 17:31N 40°44' E 029°22'  
Track history (hours):
 
Tides and Currents Weather Stations Pressure Air Temp Water Temp Dewpoint Dewpoint Depression Visibility Wind Speed Wind Dir Waves Ship Positions

M/T Havva Ana

Last reported at 2014-Aug-22 12:26 UTC. Time now 2014-Aug-23 03:35 UTC.
Position N 41°54' E 040°28'.

Length 124 m; draft 5.3 m.

Type: Tanker. MMSI: 538003488.

Date/timePositionNaut miles runAvg speedWind from/ knotsBaromVisibWave heightAir tempDewpointWater temp
2014-Aug-22 12:26N 41°54' E 040°28'  
2014-Aug-17 04:33N 40°57' E 028°58'4 0.5
2014-Aug-16 20:06N 40°57' E 028°53'0 0.0
2014-Aug-16 18:24N 40°57' E 028°53'2 2.7
2014-Aug-16 17:31N 40°56' E 028°56'1212.7
2014-Aug-16 16:33N 40°48' E 029°07'4 3.7
2014-Aug-16 15:33N 40°44' E 029°09'5 5.5
2014-Aug-16 14:33N 40°50' E 029°10'0 0.4
2014-Aug-16 13:33N 40°50' E 029°10'5 4.6
2014-Aug-16 12:29N 40°51' E 029°17'0 0.3
2014-Aug-16 11:28N 40°51' E 029°17'0 0.0
2014-Aug-16 10:28N 40°51' E 029°17'0 0.0
2014-Aug-16 09:22N 40°51' E 029°17'0 0.0
2014-Aug-16 08:28N 40°51' E 029°17'0 0.0
2014-Aug-16 07:22N 40°51' E 029°17'0 0.0
2014-Aug-16 06:28N 40°51' E 029°17'0 0.0
2014-Aug-16 05:28N 40°51' E 029°17'0 0.0
2014-Aug-16 04:28N 40°51' E 029°17'0 0.0
2014-Aug-16 03:28N 40°51' E 029°17'0 0.0
2014-Aug-16 02:28N 40°51' E 029°17'0 0.0
2014-Aug-16 01:28N 40°51' E 029°17'0 0.0
2014-Aug-16 00:28N 40°51' E 029°17'0 0.0
2014-Aug-15 23:16N 40°51' E 029°17'0 0.0
2014-Aug-15 22:10N 40°51' E 029°17'0 0.0
2014-Aug-15 21:28N 40°51' E 029°17'0 0.0
2014-Aug-15 20:28N 40°51' E 029°17'0 0.0
2014-Aug-15 19:28N 40°51' E 029°17'0 0.0
2014-Aug-15 18:28N 40°51' E 029°17'0 0.0
2014-Aug-15 17:22N 40°51' E 029°17'0 0.0
2014-Aug-15 16:28N 40°51' E 029°17'0 0.0
2014-Aug-15 15:28N 40°51' E 029°17'0 0.0
2014-Aug-15 14:28N 40°51' E 029°17'0 0.0
2014-Aug-15 13:28N 40°51' E 029°17'0 0.0
2014-Aug-15 12:16N 40°51' E 029°17'0 0.0
2014-Aug-15 00:10N 40°51' E 029°17'0 0.0
2014-Aug-14 23:28N 40°51' E 029°17'0 0.0
2014-Aug-14 22:04N 40°51' E 029°17'0 0.0
2014-Aug-14 21:28N 40°51' E 029°17'0 0.0
2014-Aug-14 20:28N 40°51' E 029°17'0 0.0
2014-Aug-14 19:28N 40°51' E 029°17'0 0.0
2014-Aug-14 18:22N 40°51' E 029°17'0 0.0
2014-Aug-14 17:27N 40°51' E 029°17'0 0.1
2014-Aug-14 16:33N 40°51' E 029°17'4 3.6
2014-Aug-14 15:33N 40°50' E 029°13'0 0.1
2014-Aug-14 14:33N 40°49' E 029°13'1 1.1
2014-Aug-14 13:33N 40°49' E 029°12'1211.6
2014-Aug-14 12:33N 40°45' E 028°57'12 0.3
2014-Aug-12 20:07N 40°57' E 028°53'4 7.2
2014-Aug-12 19:32N 40°55' E 028°58'1111.1
2014-Aug-12 18:33N 40°47' E 029°08'1110.9
2014-Aug-12 17:31N 40°44' E 029°22'  

Dump ship's entire track history